createdAt,value
2017-10-16T00:01:36.084Z,98118.16
2017-10-16T00:06:23.385Z,98114.81
2017-10-16T00:11:10.126Z,98116.77
2017-10-16T00:15:57.082Z,98119.91
2017-10-16T00:20:44.412Z,98123.77
2017-10-16T00:25:31.737Z,98129.61
2017-10-16T00:30:18.349Z,98132.00
2017-10-16T00:35:04.907Z,98136.30
2017-10-16T00:39:51.488Z,98146.73
2017-10-16T00:44:38.075Z,98139.09
2017-10-16T00:49:24.656Z,98140.70
2017-10-16T00:54:11.978Z,98139.33
2017-10-16T00:58:58.528Z,98138.77
2017-10-16T01:03:45.088Z,98129.22
2017-10-16T01:08:31.733Z,98129.11
2017-10-16T01:13:18.296Z,98132.77
2017-10-16T01:18:05.106Z,98138.17
2017-10-16T01:22:51.684Z,98138.56
2017-10-16T01:27:38.324Z,98131.38
2017-10-16T01:32:25.646Z,98143.37
2017-10-16T01:37:12.221Z,98133.39
2017-10-16T01:41:59.124Z,98140.61
2017-10-16T01:46:46.096Z,98138.93
2017-10-16T01:51:32.740Z,98136.95
2017-10-16T01:56:19.305Z,98136.20
2017-10-16T02:01:05.955Z,98135.80
2017-10-16T02:05:52.985Z,98137.96
2017-10-16T02:10:39.576Z,98140.91
2017-10-16T02:15:26.117Z,98135.91
2017-10-16T02:20:12.665Z,98137.81
2017-10-16T02:24:59.241Z,98143.44
2017-10-16T02:29:45.852Z,98145.68
2017-10-16T02:34:32.477Z,98146.49
2017-10-16T02:39:19.228Z,98144.98
2017-10-16T02:44:05.801Z,98146.98
2017-10-16T02:48:52.373Z,98156.31
2017-10-16T02:53:38.944Z,98157.02
2017-10-16T02:58:25.500Z,98148.28
2017-10-16T03:03:12.107Z,98153.48
2017-10-16T03:07:58.680Z,98157.52
2017-10-16T03:12:45.982Z,98153.66
2017-10-16T03:17:33.053Z,98155.98
2017-10-16T03:22:20.430Z,98154.15
2017-10-16T03:27:07.009Z,98145.77
2017-10-16T03:31:54.377Z,98155.23
2017-10-16T03:36:41.372Z,98155.13
2017-10-16T03:41:28.756Z,98151.87
2017-10-16T03:46:15.517Z,98156.17
2017-10-16T03:51:02.120Z,98154.69
2017-10-16T03:55:48.692Z,98153.48
2017-10-16T04:00:35.496Z,98151.05
2017-10-16T04:05:22.812Z,98148.75
2017-10-16T04:10:09.409Z,98140.75
2017-10-16T04:14:55.982Z,98147.19
2017-10-16T04:19:49.581Z,98156.86
2017-10-16T04:24:36.609Z,98158.63
2017-10-16T04:29:23.177Z,98155.55
2017-10-16T04:34:09.904Z,98152.09
2017-10-16T04:38:56.670Z,98140.77
2017-10-16T04:43:43.402Z,98147.20
2017-10-16T04:48:30.660Z,98142.30
2017-10-16T04:53:17.268Z,98142.34
2017-10-16T04:58:03.844Z,98135.86
2017-10-16T05:02:51.165Z,98144.81
2017-10-16T05:07:37.877Z,98141.19
2017-10-16T05:12:24.496Z,98140.04
2017-10-16T05:17:11.093Z,98149.44
2017-10-16T05:21:57.949Z,98144.87
2017-10-16T05:26:44.544Z,98152.90
2017-10-16T05:31:31.232Z,98143.41
2017-10-16T05:36:17.880Z,98148.28
2017-10-16T05:41:04.453Z,98149.20
2017-10-16T05:45:51.772Z,98152.28
2017-10-16T05:50:39.090Z,98157.63
2017-10-16T05:55:25.676Z,98167.88
2017-10-16T06:00:12.248Z,98165.64
2017-10-16T06:04:58.804Z,98168.87
2017-10-16T06:09:45.382Z,98165.97
2017-10-16T06:14:31.966Z,98174.20
2017-10-16T06:19:18.744Z,98177.03
2017-10-16T06:24:05.333Z,98180.02
2017-10-16T06:28:52.057Z,98179.25
2017-10-16T06:33:38.744Z,98180.43
2017-10-16T06:38:32.348Z,98177.88
2017-10-16T06:43:18.961Z,98187.08
2017-10-16T06:48:05.545Z,98195.88
2017-10-16T06:52:52.177Z,98194.16
2017-10-16T06:57:38.744Z,98189.88
2017-10-16T07:02:25.330Z,98188.50
2017-10-16T07:07:11.908Z,98188.26
2017-10-16T07:11:59.970Z,98177.78
2017-10-16T07:16:46.576Z,98194.06
2017-10-16T07:21:33.897Z,98193.03
2017-10-16T07:26:20.469Z,98196.30
2017-10-16T07:31:07.044Z,98196.08
2017-10-16T07:35:54.340Z,98201.60
2017-10-16T07:40:40.897Z,98193.75
2017-10-16T07:45:28.209Z,98186.10
2017-10-16T07:50:14.941Z,98190.02
2017-10-16T07:55:01.674Z,98193.14
2017-10-16T07:59:48.301Z,98202.55
2017-10-16T08:04:35.624Z,98202.58
2017-10-16T08:09:22.171Z,98203.78
2017-10-16T08:14:08.783Z,98203.78
2017-10-16T08:18:56.104Z,98208.45
2017-10-16T08:23:43.497Z,98212.63
2017-10-16T08:28:30.048Z,98207.72
2017-10-16T08:33:16.620Z,98204.75
2017-10-16T08:38:03.238Z,98207.66
2017-10-16T08:42:49.809Z,98209.37
2017-10-16T08:47:36.531Z,98209.30
2017-10-16T08:52:23.126Z,98209.38
2017-10-16T08:57:09.713Z,98197.53
2017-10-16T09:01:56.285Z,98204.97
2017-10-16T09:06:43.029Z,98206.58
2017-10-16T09:11:30.348Z,98212.73
2017-10-16T09:16:16.935Z,98196.13
2017-10-16T09:21:03.529Z,98201.02
2017-10-16T09:25:50.109Z,98202.11
2017-10-16T09:30:36.969Z,98209.45
2017-10-16T09:35:23.534Z,98208.50
2017-10-16T09:40:10.127Z,98203.01
2017-10-16T09:44:56.740Z,98197.27
2017-10-16T09:49:44.149Z,98196.39
2017-10-16T09:54:31.709Z,98202.87
2017-10-16T09:59:18.333Z,98199.98
2017-10-16T10:04:05.227Z,98189.08
2017-10-16T10:08:52.718Z,98187.14
2017-10-16T10:13:39.319Z,98177.92
2017-10-16T10:18:25.908Z,98182.30
2017-10-16T10:23:13.344Z,98168.83
2017-10-16T10:27:59.927Z,98164.11
2017-10-16T10:32:46.593Z,98159.25
2017-10-16T10:37:33.901Z,98163.78
2017-10-16T10:42:20.491Z,98150.16
2017-10-16T10:47:07.119Z,98153.53
2017-10-16T10:51:53.728Z,98140.38
2017-10-16T10:56:40.368Z,98136.72
2017-10-16T11:01:27.253Z,98134.59
2017-10-16T11:06:13.787Z,98130.39
2017-10-16T11:11:00.374Z,98123.93
2017-10-16T11:15:47.928Z,98129.84
2017-10-16T11:20:34.488Z,98119.43
2017-10-16T11:25:21.069Z,98113.91
2017-10-16T11:30:07.645Z,98103.47
2017-10-16T11:34:54.219Z,98107.91
2017-10-16T11:39:40.816Z,98088.66
2017-10-16T11:44:28.140Z,98095.61
2017-10-16T11:49:15.477Z,98096.34
2017-10-16T11:54:02.884Z,98092.09
2017-10-16T11:58:49.486Z,98088.97
2017-10-16T12:03:36.079Z,98080.47
2017-10-16T12:08:22.685Z,98072.16
2017-10-16T12:13:10.024Z,98070.14
2017-10-16T12:17:57.339Z,98071.06
2017-10-16T12:22:44.109Z,98061.77
2017-10-16T12:27:30.748Z,98062.40
2017-10-16T12:32:17.585Z,98063.88
2017-10-16T12:37:04.150Z,98054.64
2017-10-16T12:41:50.716Z,98051.11
2017-10-16T12:46:37.313Z,98046.88
2017-10-16T12:51:23.875Z,98048.05
2017-10-16T12:56:11.272Z,98042.37
2017-10-16T13:00:57.954Z,98038.20
2017-10-16T13:05:45.261Z,98042.25
2017-10-16T13:10:32.037Z,98037.39
2017-10-16T13:15:18.612Z,98036.42
2017-10-16T13:20:05.176Z,98033.80
2017-10-16T13:24:51.720Z,98032.28
2017-10-16T13:29:38.288Z,98024.77
2017-10-16T13:34:25.612Z,98026.41
2017-10-16T13:39:12.210Z,98021.19
2017-10-16T13:43:59.388Z,98016.20
2017-10-16T13:48:46.668Z,98019.97
2017-10-16T13:53:33.221Z,98020.24
2017-10-16T13:58:20.221Z,98015.52
2017-10-16T14:03:06.805Z,98011.95
2017-10-16T14:07:53.373Z,98012.31
2017-10-16T14:12:39.936Z,98011.76
2017-10-16T14:17:26.574Z,98006.34
2017-10-16T14:22:13.140Z,98011.36
2017-10-16T14:26:59.801Z,98006.16
2017-10-16T14:31:46.406Z,98008.28
2017-10-16T14:36:33.726Z,98005.66
2017-10-16T14:41:21.045Z,98005.84
2017-10-16T14:46:08.012Z,98000.43
2017-10-16T14:50:54.774Z,98001.54
2017-10-16T14:55:41.393Z,97993.89
2017-10-16T15:00:27.993Z,97997.73
2017-10-16T15:05:14.586Z,97993.97
2017-10-16T15:10:02.003Z,98002.98
2017-10-16T15:14:48.556Z,97992.98
2017-10-16T15:19:35.108Z,97997.89
2017-10-16T15:24:21.680Z,97998.70
2017-10-16T15:29:09.020Z,98002.13
2017-10-16T15:33:56.340Z,97996.97
2017-10-16T15:38:43.644Z,97995.16
2017-10-16T15:43:30.233Z,97993.28
2017-10-16T15:48:16.828Z,97993.72
2017-10-16T15:53:04.172Z,97995.97
2017-10-16T15:57:50.879Z,97997.81
2017-10-16T16:02:38.278Z,97990.89
2017-10-16T16:07:24.860Z,97998.98
2017-10-16T16:12:11.453Z,98002.05
2017-10-16T16:16:58.012Z,98003.91
2017-10-16T16:21:44.625Z,98001.75
2017-10-16T16:26:31.166Z,98006.73
2017-10-16T16:31:17.786Z,97997.50
2017-10-16T16:36:04.384Z,98022.78
2017-10-16T16:40:51.043Z,98023.73
2017-10-16T16:45:37.792Z,98022.97
2017-10-16T16:50:25.137Z,98027.34
2017-10-16T16:55:12.826Z,98030.27
2017-10-16T16:59:59.561Z,98031.55
2017-10-16T17:04:46.217Z,98021.80
2017-10-16T17:09:32.812Z,98032.05
2017-10-16T17:14:19.403Z,98033.61
2017-10-16T17:19:06.036Z,98032.19
2017-10-16T17:23:52.605Z,98041.38
2017-10-16T17:28:40.032Z,98039.37
2017-10-16T17:33:27.465Z,98045.55
2017-10-16T17:38:14.113Z,98038.77
2017-10-16T17:43:01.689Z,98033.65
2017-10-16T17:47:48.333Z,98039.98
2017-10-16T17:52:35.002Z,98036.45
2017-10-16T17:57:21.697Z,98037.71
2017-10-16T18:02:09.144Z,98040.67
2017-10-16T18:06:56.623Z,98042.16
2017-10-16T18:11:43.409Z,98041.91
2017-10-16T18:16:30.812Z,98041.03
2017-10-16T18:21:17.511Z,98042.16
2017-10-16T18:26:04.148Z,98042.45
2017-10-16T18:30:50.937Z,98043.77
2017-10-16T18:35:37.716Z,98040.33
2017-10-16T18:40:24.438Z,98033.86
2017-10-16T18:45:11.892Z,98039.05
2017-10-16T18:49:59.320Z,98042.45
2017-10-16T18:54:46.048Z,98037.75
2017-10-16T18:59:33.575Z,98036.84
2017-10-16T19:04:20.422Z,98040.16
2017-10-16T19:09:07.841Z,98041.85
2017-10-16T19:13:54.545Z,98044.75
2017-10-16T19:18:41.321Z,98033.30
2017-10-16T19:23:28.064Z,98028.64
2017-10-16T19:28:14.738Z,98030.77
2017-10-16T19:33:01.465Z,98032.42
2017-10-16T19:37:49.672Z,98035.32
2017-10-16T19:42:36.343Z,98041.38
2017-10-16T19:47:23.053Z,98041.07
2017-10-16T19:52:09.764Z,98050.36
2017-10-16T19:56:56.388Z,98046.50
2017-10-16T20:01:43.020Z,98042.45
2017-10-16T20:06:30.124Z,98045.22
2017-10-16T20:11:16.820Z,98046.97
2017-10-16T20:16:03.479Z,98048.38
2017-10-16T20:20:50.134Z,98051.91
2017-10-16T20:25:37.489Z,98046.91
2017-10-16T20:30:24.028Z,98048.42
2017-10-16T20:35:10.650Z,98049.09
2017-10-16T20:39:57.260Z,98049.63
2017-10-16T20:44:43.927Z,98047.48
2017-10-16T20:49:30.540Z,98036.97
2017-10-16T20:54:17.109Z,98044.29
2017-10-16T20:59:03.745Z,98040.28
2017-10-16T21:03:50.316Z,98051.14
2017-10-16T21:08:36.896Z,98045.54
2017-10-16T21:13:23.489Z,98048.90
2017-10-16T21:18:10.189Z,98050.44
2017-10-16T21:22:56.797Z,98045.23
2017-10-16T21:27:43.680Z,98052.55
2017-10-16T21:32:30.274Z,98057.06
2017-10-16T21:37:16.841Z,98059.17
2017-10-16T21:42:04.224Z,98060.16
2017-10-16T21:46:51.584Z,98050.63
2017-10-16T21:51:38.190Z,98055.43
2017-10-16T21:56:24.881Z,98054.28
2017-10-16T22:01:12.203Z,98055.67
2017-10-16T22:05:58.825Z,98054.50
2017-10-16T22:10:45.693Z,98051.83
2017-10-16T22:15:32.591Z,98055.62
2017-10-16T22:20:19.328Z,98053.34
2017-10-16T22:25:06.675Z,98054.23
2017-10-16T22:29:53.252Z,98049.51
2017-10-16T22:34:39.928Z,98047.38
2017-10-16T22:39:26.717Z,98047.36
2017-10-16T22:44:13.408Z,98038.17
2017-10-16T22:49:00.302Z,98030.41
2017-10-16T22:54:03.028Z,98031.46
2017-10-16T22:58:50.364Z,98033.10
2017-10-16T23:03:36.949Z,98031.15
2017-10-16T23:08:23.526Z,98031.69
2017-10-16T23:13:10.049Z,98031.52
2017-10-16T23:17:56.635Z,98026.23
2017-10-16T23:22:43.466Z,98018.58
2017-10-16T23:27:30.057Z,98023.72
2017-10-16T23:32:16.720Z,98028.64
2017-10-16T23:37:03.637Z,98027.34
2017-10-16T23:41:50.201Z,98017.67
2017-10-16T23:46:37.541Z,98022.02
2017-10-16T23:51:24.845Z,98021.56
2017-10-16T23:56:11.423Z,98020.06
